createdAt,value
2022-08-03T00:01:38.209Z,6.13
2022-08-03T00:04:09.284Z,6.00
2022-08-03T00:06:37.431Z,6.60
2022-08-03T00:09:06.400Z,6.80
2022-08-03T00:11:34.807Z,6.32
2022-08-03T00:14:02.616Z,6.20
2022-08-03T00:16:30.123Z,6.43
2022-08-03T00:18:57.544Z,6.05
2022-08-03T00:21:25.096Z,6.45
2022-08-03T00:23:53.016Z,6.35
2022-08-03T00:26:22.046Z,7.25
2022-08-03T00:28:50.470Z,6.43
2022-08-03T00:31:30.950Z,5.85
2022-08-03T00:34:06.178Z,6.35
2022-08-03T00:36:34.317Z,5.90
2022-08-03T00:39:01.619Z,6.15
2022-08-03T00:41:29.060Z,6.25
2022-08-03T00:43:56.381Z,6.13
2022-08-03T00:46:23.820Z,6.13
2022-08-03T00:48:51.995Z,6.50
2022-08-03T00:51:20.877Z,6.53
2022-08-03T00:53:48.421Z,6.47
2022-08-03T00:56:17.810Z,5.80
2022-08-03T00:58:47.509Z,6.30
2022-08-03T01:01:15.933Z,6.75
2022-08-03T01:03:45.252Z,6.72
2022-08-03T01:16:20.671Z,8.15
2022-08-03T01:19:17.024Z,7.00
2022-08-03T01:21:59.094Z,6.72
2022-08-03T01:25:16.355Z,6.93
2022-08-03T01:28:40.002Z,7.00
2022-08-03T01:31:16.542Z,7.15
2022-08-03T01:33:50.267Z,7.03
2022-08-03T01:36:23.301Z,7.22
2022-08-03T01:38:56.670Z,7.13
2022-08-03T01:41:33.874Z,7.20
2022-08-03T01:44:29.379Z,6.82
2022-08-03T01:47:01.656Z,6.80
2022-08-03T01:49:34.198Z,6.80
2022-08-03T01:52:05.458Z,7.00
2022-08-03T01:54:42.611Z,6.82
2022-08-03T01:57:11.375Z,7.18
2022-08-03T01:59:40.569Z,7.30
2022-08-03T02:02:28.717Z,7.38
2022-08-03T02:04:59.465Z,6.93
2022-08-03T02:07:29.805Z,6.85
2022-08-03T02:09:59.140Z,7.00
2022-08-03T02:12:30.177Z,7.00
2022-08-03T02:14:59.931Z,6.85
2022-08-03T02:17:39.088Z,6.50
2022-08-03T02:20:12.395Z,7.10
2022-08-03T02:22:44.737Z,7.00
2022-08-03T02:25:14.674Z,7.03
2022-08-03T02:27:53.326Z,7.10
2022-08-03T02:30:22.329Z,7.00
2022-08-03T02:32:55.834Z,7.50
2022-08-03T02:35:27.456Z,7.18
2022-08-03T02:38:01.562Z,6.90
2022-08-03T02:43:07.746Z,6.60
2022-08-03T02:45:45.504Z,6.88
2022-08-03T02:48:25.100Z,7.40
2022-08-03T02:50:55.394Z,7.05
2022-08-03T02:53:24.634Z,7.68
2022-08-03T02:55:54.146Z,7.65
2022-08-03T02:58:23.542Z,7.32
2022-08-03T03:00:52.210Z,6.78
2022-08-03T03:03:21.620Z,6.82
2022-08-03T03:05:55.165Z,7.28
2022-08-03T03:08:28.661Z,7.30
2022-08-03T03:11:01.401Z,7.05
2022-08-03T03:13:33.122Z,7.45
2022-08-03T03:16:04.920Z,7.43
2022-08-03T03:18:34.625Z,7.32
2022-08-03T03:21:04.482Z,7.40
2022-08-03T03:23:36.219Z,7.22
2022-08-03T03:26:04.139Z,7.05
2022-08-03T03:28:33.195Z,7.25
2022-08-03T03:31:02.102Z,7.25
2022-08-03T03:33:29.459Z,7.75
2022-08-03T03:35:58.564Z,7.93
2022-08-03T03:38:26.200Z,7.68
2022-08-03T03:40:54.191Z,7.22
2022-08-03T03:43:24.016Z,7.57
2022-08-03T03:45:53.147Z,7.25
2022-08-03T03:48:21.210Z,8.18
2022-08-03T03:50:50.656Z,7.55
2022-08-03T03:53:18.054Z,8.00
2022-08-03T03:55:57.847Z,7.65
2022-08-03T03:58:31.935Z,7.75
2022-08-03T04:00:59.726Z,7.78
2022-08-03T04:03:27.290Z,8.30
2022-08-03T04:06:13.368Z,8.32
2022-08-03T04:08:59.958Z,8.82
2022-08-03T04:11:35.070Z,8.10
2022-08-03T04:14:26.892Z,8.38
2022-08-03T04:16:59.839Z,7.72
2022-08-03T04:19:45.511Z,8.13
2022-08-03T04:22:21.645Z,7.90
2022-08-03T04:25:01.784Z,8.48
2022-08-03T04:27:36.837Z,9.40
2022-08-03T04:30:06.733Z,9.50
2022-08-03T04:32:36.432Z,9.45
2022-08-03T04:35:06.728Z,11.05
2022-08-03T04:37:44.251Z,10.13
2022-08-03T04:40:16.469Z,10.15
2022-08-03T04:42:50.294Z,10.90
2022-08-03T04:45:20.063Z,10.23
2022-08-03T04:47:48.093Z,10.10
2022-08-03T04:50:21.221Z,11.32
2022-08-03T04:52:49.700Z,10.02
2022-08-03T04:55:34.632Z,10.27
2022-08-03T04:58:04.112Z,10.70
2022-08-03T05:00:32.362Z,10.88
2022-08-03T05:02:59.667Z,9.40
2022-08-03T05:05:48.871Z,10.45
2022-08-03T05:08:14.450Z,10.73
2022-08-03T05:10:41.746Z,10.43
2022-08-03T05:13:12.993Z,9.90
2022-08-03T05:15:42.962Z,11.40
2022-08-03T05:18:14.137Z,10.20
2022-08-03T05:20:42.095Z,10.13
2022-08-03T05:23:09.368Z,10.63
2022-08-03T05:25:36.667Z,9.80
2022-08-03T05:28:04.480Z,9.52
2022-08-03T05:30:34.334Z,9.43
2022-08-03T05:33:03.800Z,8.98
2022-08-03T05:35:57.474Z,9.55
2022-08-03T05:38:24.024Z,9.02
2022-08-03T05:41:22.905Z,8.15
2022-08-03T05:43:48.056Z,9.20
2022-08-03T05:46:15.955Z,8.38
2022-08-03T05:48:43.835Z,9.05
2022-08-03T05:51:12.126Z,9.60
2022-08-03T05:53:41.448Z,8.70
2022-08-03T05:56:14.611Z,9.05
2022-08-03T05:58:52.769Z,8.63
2022-08-03T06:01:23.680Z,8.98
2022-08-03T06:03:52.279Z,8.52
2022-08-03T06:06:20.061Z,8.43
2022-08-03T06:08:48.973Z,8.90
2022-08-03T06:11:16.699Z,8.10
2022-08-03T06:13:44.894Z,8.57
2022-08-03T06:16:12.356Z,8.23
2022-08-03T06:18:40.584Z,8.63
2022-08-03T06:21:14.677Z,8.23
2022-08-03T06:23:54.397Z,8.80
2022-08-03T06:26:27.853Z,8.40
2022-08-03T06:28:55.956Z,8.60
2022-08-03T06:31:32.393Z,8.60
2022-08-03T06:34:32.100Z,8.52
2022-08-03T06:36:52.886Z,8.30
2022-08-03T06:39:23.557Z,8.45
2022-08-03T06:41:51.783Z,8.18
2022-08-03T06:44:19.057Z,8.32
2022-08-03T06:46:47.836Z,7.88
2022-08-03T06:49:15.176Z,8.95
2022-08-03T06:52:03.081Z,9.07
2022-08-03T06:54:32.928Z,8.43
2022-08-03T06:57:00.964Z,8.20
2022-08-03T07:00:09.498Z,7.95
2022-08-03T07:02:19.023Z,7.57
2022-08-03T07:04:48.543Z,8.20
2022-08-03T07:07:15.994Z,7.68
2022-08-03T07:09:43.289Z,8.30
2022-08-03T07:12:27.041Z,7.05
2022-08-03T07:14:59.763Z,7.50
2022-08-03T07:17:29.778Z,7.18
2022-08-03T07:19:57.806Z,7.30
2022-08-03T07:22:25.500Z,7.03
2022-08-03T07:24:52.909Z,7.20
2022-08-03T07:27:20.323Z,7.45
2022-08-03T07:29:47.560Z,6.82
2022-08-03T07:32:15.189Z,7.10
2022-08-03T07:34:42.636Z,7.05
2022-08-03T07:37:09.983Z,6.90
2022-08-03T07:39:37.231Z,6.90
2022-08-03T07:42:05.630Z,6.75
2022-08-03T07:44:32.983Z,6.45
2022-08-03T07:47:03.219Z,6.68
2022-08-03T07:49:30.998Z,6.70
2022-08-03T07:52:17.541Z,6.28
2022-08-03T07:54:45.200Z,6.70
2022-08-03T07:57:12.945Z,7.07
2022-08-03T07:59:56.431Z,6.32
2022-08-03T08:02:24.866Z,7.50
2022-08-03T08:04:52.370Z,7.18
2022-08-03T08:07:20.714Z,7.15
2022-08-03T08:09:48.088Z,7.40
2022-08-03T08:12:16.092Z,7.40
2022-08-03T08:14:46.784Z,6.70
2022-08-03T08:17:14.595Z,7.35
2022-08-03T08:19:47.525Z,7.47
2022-08-03T08:22:26.522Z,6.88
2022-08-03T08:27:27.323Z,6.25
2022-08-03T08:29:58.845Z,7.18
2022-08-03T08:32:29.931Z,6.60
2022-08-03T08:34:57.916Z,6.75
2022-08-03T08:37:25.258Z,5.60
2022-08-03T08:39:52.541Z,5.45
2022-08-03T08:42:19.853Z,5.60
2022-08-03T08:44:47.160Z,4.85
2022-08-03T08:47:15.949Z,4.43
2022-08-03T08:49:53.577Z,4.05
2022-08-03T08:52:32.222Z,3.83
2022-08-03T08:55:04.142Z,4.20
2022-08-03T08:57:43.162Z,3.92
2022-08-03T09:00:15.504Z,3.47
2022-08-03T09:02:44.842Z,3.38
2022-08-03T09:05:17.944Z,3.80
2022-08-03T09:07:47.864Z,3.53
2022-08-03T09:10:19.949Z,3.80
2022-08-03T09:12:52.314Z,3.80
2022-08-03T09:15:23.461Z,3.55
2022-08-03T09:17:54.075Z,3.42
2022-08-03T09:20:24.137Z,3.45
2022-08-03T09:23:44.987Z,3.58
2022-08-03T09:26:01.801Z,3.05
2022-08-03T09:29:00.844Z,3.30
2022-08-03T09:34:15.178Z,3.28
2022-08-03T09:36:48.405Z,3.05
2022-08-03T09:39:40.796Z,3.05
2022-08-03T09:42:23.547Z,3.30
2022-08-03T09:44:52.842Z,3.20
2022-08-03T09:47:36.802Z,3.22
2022-08-03T09:50:13.034Z,3.10
2022-08-03T09:52:49.609Z,3.20
2022-08-03T09:56:33.494Z,2.90
2022-08-03T09:58:14.400Z,3.25
2022-08-03T10:01:24.008Z,3.28
2022-08-03T10:04:03.182Z,3.67
2022-08-03T10:06:32.117Z,3.50
2022-08-03T10:09:17.886Z,3.33
2022-08-03T10:11:47.069Z,3.10
2022-08-03T10:14:19.370Z,3.33
2022-08-03T10:16:48.574Z,3.20
2022-08-03T10:19:16.630Z,3.38
2022-08-03T10:21:54.313Z,3.03
2022-08-03T10:24:27.534Z,3.08
2022-08-03T10:27:08.108Z,3.30
2022-08-03T10:29:42.585Z,3.40
2022-08-03T10:32:28.757Z,3.40
2022-08-03T10:35:20.044Z,3.22
2022-08-03T10:38:18.717Z,3.40
2022-08-03T10:40:49.597Z,3.40
2022-08-03T10:43:34.726Z,3.60
2022-08-03T10:46:07.581Z,3.50
2022-08-03T10:48:36.938Z,3.20
2022-08-03T10:51:04.986Z,3.60
2022-08-03T10:53:54.481Z,3.33
2022-08-03T10:56:53.483Z,3.20
2022-08-03T10:59:46.749Z,3.47
2022-08-03T11:02:15.630Z,3.30
2022-08-03T11:04:44.869Z,3.22
2022-08-03T11:07:18.432Z,3.50
2022-08-03T11:09:49.203Z,3.10
2022-08-03T11:12:30.661Z,3.45
2022-08-03T11:15:04.422Z,3.40
2022-08-03T11:17:46.162Z,3.53
2022-08-03T11:21:00.457Z,3.47
2022-08-03T11:24:05.307Z,3.45
2022-08-03T11:26:35.074Z,3.70
2022-08-03T11:29:30.710Z,3.60
2022-08-03T11:31:58.549Z,3.42
2022-08-03T11:34:26.469Z,3.20
2022-08-03T11:37:30.151Z,3.60
2022-08-03T11:40:02.588Z,3.40
2022-08-03T11:42:36.649Z,3.33
2022-08-03T11:45:09.018Z,3.33
2022-08-03T11:47:50.581Z,3.30
2022-08-03T11:50:20.059Z,3.58
2022-08-03T11:52:48.460Z,3.60
2022-08-03T11:55:20.472Z,3.67
2022-08-03T11:59:00.851Z,3.65
2022-08-03T12:01:08.316Z,3.38
2022-08-03T12:03:36.425Z,3.53
2022-08-03T12:06:04.800Z,3.40
2022-08-03T12:08:34.190Z,3.42
2022-08-03T12:11:05.877Z,3.20
2022-08-03T12:13:56.816Z,3.45
2022-08-03T12:16:28.910Z,3.47
2022-08-03T12:19:06.953Z,3.15
2022-08-03T12:21:34.380Z,3.33
2022-08-03T12:24:05.034Z,3.40
2022-08-03T12:26:57.231Z,3.40
2022-08-03T12:29:27.487Z,3.30
2022-08-03T12:31:56.137Z,3.30
2022-08-03T12:34:23.760Z,3.40
2022-08-03T12:36:56.224Z,3.30
2022-08-03T12:39:27.586Z,3.20
2022-08-03T12:41:57.083Z,3.20
2022-08-03T12:44:33.898Z,3.25
2022-08-03T12:47:06.833Z,3.00
2022-08-03T12:49:52.258Z,3.50
2022-08-03T12:52:22.279Z,3.20
2022-08-03T12:55:00.876Z,3.17
2022-08-03T12:57:48.772Z,3.13
2022-08-03T13:00:29.121Z,3.30
2022-08-03T13:05:55.670Z,3.03
2022-08-03T13:08:25.717Z,3.22
2022-08-03T13:10:53.354Z,3.10
2022-08-03T13:13:39.788Z,3.17
2022-08-03T13:16:07.032Z,3.40
2022-08-03T13:18:34.292Z,3.42
2022-08-03T13:21:02.314Z,3.38
2022-08-03T13:23:36.091Z,3.35
2022-08-03T13:26:03.333Z,3.63
2022-08-03T13:28:30.704Z,3.67
2022-08-03T13:30:57.966Z,3.20
2022-08-03T13:33:26.688Z,3.70
2022-08-03T13:35:53.963Z,3.47
2022-08-03T13:38:21.633Z,3.13
2022-08-03T13:40:54.575Z,3.40
2022-08-03T13:43:23.371Z,3.55
2022-08-03T13:45:54.822Z,3.10
2022-08-03T13:48:36.965Z,3.35
2022-08-03T13:51:11.695Z,2.90
2022-08-03T13:53:52.338Z,3.47
2022-08-03T13:56:19.664Z,3.47
2022-08-03T13:58:53.335Z,3.40
2022-08-03T14:01:53.649Z,3.22
2022-08-03T14:04:21.627Z,3.10
2022-08-03T14:06:49.820Z,3.05
2022-08-03T14:09:17.770Z,3.17
2022-08-03T14:12:07.078Z,2.90
2022-08-03T14:14:33.297Z,2.97
2022-08-03T14:17:00.591Z,3.20
2022-08-03T14:19:27.893Z,3.03
2022-08-03T14:22:06.007Z,3.03
2022-08-03T14:24:33.661Z,3.30
2022-08-03T14:27:08.641Z,3.10
2022-08-03T14:29:36.465Z,2.95
2022-08-03T14:32:11.448Z,2.95
2022-08-03T14:34:40.960Z,2.80
2022-08-03T14:37:08.753Z,2.95
2022-08-03T14:42:23.926Z,2.50
2022-08-03T14:44:51.202Z,2.45
2022-08-03T14:47:18.598Z,2.63
2022-08-03T14:50:38.545Z,3.30
2022-08-03T14:52:33.832Z,2.90
2022-08-03T14:55:01.849Z,3.00
2022-08-03T14:57:37.221Z,2.80
2022-08-03T15:00:05.757Z,2.70
2022-08-03T15:02:33.271Z,2.63
2022-08-03T15:05:00.787Z,2.65
2022-08-03T15:07:28.092Z,2.60
2022-08-03T15:09:55.576Z,2.42
2022-08-03T15:12:23.303Z,2.85
2022-08-03T15:14:50.615Z,2.53
2022-08-03T15:17:19.288Z,2.90
2022-08-03T15:20:00.217Z,2.58
2022-08-03T15:22:34.712Z,2.55
2022-08-03T15:26:01.721Z,2.50
2022-08-03T15:28:03.071Z,2.60
2022-08-03T15:30:35.995Z,2.55
2022-08-03T15:33:04.234Z,2.47
2022-08-03T15:35:31.637Z,2.42
2022-08-03T15:37:58.890Z,2.28
2022-08-03T15:40:26.447Z,2.58
2022-08-03T15:42:53.745Z,2.17
2022-08-03T15:45:21.039Z,2.28
2022-08-03T15:47:51.319Z,2.40
2022-08-03T15:50:18.648Z,2.20
2022-08-03T15:52:46.060Z,2.15
2022-08-03T15:55:15.703Z,2.50
2022-08-03T15:59:03.154Z,2.10
2022-08-03T16:00:33.642Z,2.08
2022-08-03T16:03:01.722Z,2.25
2022-08-03T16:05:29.450Z,2.25
2022-08-03T16:08:02.568Z,2.22
2022-08-03T16:10:31.748Z,2.28
2022-08-03T16:13:00.333Z,2.22
2022-08-03T16:15:29.133Z,2.33
2022-08-03T16:17:56.750Z,2.10
2022-08-03T16:20:31.418Z,2.17
2022-08-03T16:23:05.517Z,2.20
2022-08-03T16:25:40.737Z,2.28
2022-08-03T16:28:13.770Z,2.10
2022-08-03T16:33:17.172Z,2.10
2022-08-03T16:35:46.761Z,2.30
2022-08-03T16:38:18.783Z,2.50
2022-08-03T16:40:51.634Z,2.40
2022-08-03T16:43:22.690Z,2.28
2022-08-03T16:45:50.570Z,2.33
2022-08-03T16:48:19.217Z,2.30
2022-08-03T16:50:47.074Z,2.47
2022-08-03T16:53:16.842Z,2.58
2022-08-03T16:55:53.600Z,2.70
2022-08-03T16:58:41.161Z,2.55
2022-08-03T17:01:22.350Z,2.85
2022-08-03T17:04:04.762Z,3.03
2022-08-03T17:06:38.367Z,3.10
2022-08-03T17:09:17.994Z,2.70
2022-08-03T17:11:49.229Z,2.50
2022-08-03T17:14:22.927Z,3.28
2022-08-03T17:17:03.841Z,2.75
2022-08-03T17:19:32.810Z,2.72
2022-08-03T17:22:15.893Z,3.30
2022-08-03T17:24:54.616Z,2.95
2022-08-03T17:28:51.519Z,2.80
2022-08-03T17:30:18.868Z,2.97
2022-08-03T17:32:57.220Z,3.15
2022-08-03T17:35:38.619Z,3.10
2022-08-03T17:38:11.848Z,2.80
2022-08-03T17:40:43.049Z,2.90
2022-08-03T17:44:13.083Z,2.60
2022-08-03T17:48:34.450Z,2.70
2022-08-03T17:51:22.444Z,2.80
2022-08-03T17:54:18.569Z,2.63
2022-08-03T17:58:01.441Z,3.30
2022-08-03T18:00:42.684Z,3.05
2022-08-03T18:03:23.489Z,3.28
2022-08-03T18:06:11.910Z,3.20
2022-08-03T18:08:52.456Z,3.40
2022-08-03T18:11:37.162Z,3.40
2022-08-03T18:14:57.928Z,3.00
2022-08-03T18:17:55.696Z,3.10
2022-08-03T18:20:34.369Z,3.38
2022-08-03T18:23:10.657Z,2.72
2022-08-03T18:25:45.765Z,3.00
2022-08-03T18:28:19.434Z,3.05
2022-08-03T18:30:54.121Z,3.20
2022-08-03T18:34:16.594Z,3.25
2022-08-03T18:36:18.021Z,3.40
2022-08-03T18:38:53.929Z,3.10
2022-08-03T18:41:33.282Z,3.33
2022-08-03T18:44:07.606Z,3.58
2022-08-03T18:47:17.366Z,3.15
2022-08-03T18:50:02.413Z,3.13
2022-08-03T18:52:45.890Z,3.42
2022-08-03T18:55:33.440Z,3.33
2022-08-03T18:58:34.661Z,3.38
2022-08-03T19:02:00.593Z,3.30
2022-08-03T19:04:41.034Z,3.60
2022-08-03T19:09:49.896Z,3.80
2022-08-03T19:12:30.833Z,3.60
2022-08-03T19:15:10.599Z,3.80
2022-08-03T19:17:53.180Z,3.75
2022-08-03T19:20:27.323Z,3.70
2022-08-03T19:22:57.892Z,3.70
2022-08-03T19:25:35.212Z,3.85
2022-08-03T19:28:06.515Z,3.80
2022-08-03T19:30:40.637Z,3.92
2022-08-03T19:33:15.274Z,3.90
2022-08-03T19:35:54.938Z,4.22
2022-08-03T19:38:28.453Z,4.05
2022-08-03T19:41:03.795Z,4.25
2022-08-03T19:43:49.520Z,4.05
2022-08-03T19:46:22.684Z,4.35
2022-08-03T19:49:10.566Z,3.97
2022-08-03T19:52:02.266Z,4.03
2022-08-03T19:54:45.810Z,4.20
2022-08-03T19:57:25.412Z,4.25
2022-08-03T19:59:56.354Z,4.55
2022-08-03T20:02:26.343Z,4.40
2022-08-03T20:05:00.034Z,3.95
2022-08-03T20:07:32.886Z,4.20
2022-08-03T20:10:05.271Z,4.50
2022-08-03T20:12:39.271Z,4.50
2022-08-03T20:17:56.106Z,4.45
2022-08-03T20:20:31.951Z,4.30
2022-08-03T20:23:08.197Z,4.40
2022-08-03T20:25:58.651Z,4.35
2022-08-03T20:28:50.681Z,4.32
2022-08-03T20:31:23.850Z,4.40
2022-08-03T20:34:00.570Z,4.75
2022-08-03T20:36:28.105Z,4.70
2022-08-03T20:41:45.028Z,4.53
2022-08-03T20:44:12.376Z,4.22
2022-08-03T20:46:53.356Z,4.50
2022-08-03T20:49:27.707Z,4.32
2022-08-03T20:51:55.107Z,4.50
2022-08-03T20:54:29.752Z,4.15
2022-08-03T20:57:04.093Z,4.40
2022-08-03T20:59:47.090Z,4.80
2022-08-03T21:02:30.198Z,4.80
2022-08-03T21:05:08.551Z,4.35
2022-08-03T21:08:06.866Z,4.80
2022-08-03T21:10:39.038Z,4.65
2022-08-03T21:13:13.134Z,4.45
2022-08-03T21:16:12.513Z,4.80
2022-08-03T21:18:50.409Z,5.10
2022-08-03T21:21:21.001Z,4.50
2022-08-03T21:23:49.669Z,4.70
2022-08-03T21:26:20.447Z,4.88
2022-08-03T21:29:03.577Z,5.00
2022-08-03T21:31:31.235Z,5.05
2022-08-03T21:34:03.972Z,4.68
2022-08-03T21:36:35.475Z,4.82
2022-08-03T21:39:07.678Z,4.95
2022-08-03T21:41:37.854Z,4.88
2022-08-03T21:44:06.921Z,5.20
2022-08-03T21:46:38.051Z,4.93
2022-08-03T21:50:07.691Z,4.90
2022-08-03T21:52:07.037Z,5.05
2022-08-03T21:54:38.543Z,4.90
2022-08-03T21:57:19.439Z,4.90
2022-08-03T21:59:57.463Z,4.78
2022-08-03T22:02:32.157Z,4.93
2022-08-03T22:05:00.016Z,4.90
2022-08-03T22:07:29.500Z,4.93
2022-08-03T22:09:59.900Z,4.95
2022-08-03T22:12:30.925Z,5.18
2022-08-03T22:15:02.120Z,5.47
2022-08-03T22:17:54.140Z,5.00
2022-08-03T22:20:22.106Z,4.85
2022-08-03T22:22:55.763Z,5.28
2022-08-03T22:25:29.316Z,5.10
2022-08-03T22:28:00.265Z,5.30
2022-08-03T22:30:28.113Z,5.22
2022-08-03T22:32:56.707Z,5.50
2022-08-03T22:35:27.636Z,5.32
2022-08-03T22:37:58.717Z,5.43
2022-08-03T22:40:28.179Z,5.40
2022-08-03T22:42:56.822Z,5.82
2022-08-03T22:46:07.275Z,5.30
2022-08-03T22:48:11.954Z,5.25
2022-08-03T22:50:40.088Z,5.47
2022-08-03T22:53:07.668Z,5.47
2022-08-03T22:55:35.241Z,4.90
2022-08-03T22:58:02.563Z,5.50
2022-08-03T23:00:29.906Z,5.40
2022-08-03T23:03:00.926Z,5.53
2022-08-03T23:06:00.694Z,5.40
2022-08-03T23:08:25.501Z,5.40
2022-08-03T23:10:56.239Z,5.22
2022-08-03T23:13:29.468Z,5.10
2022-08-03T23:15:59.888Z,5.15
2022-08-03T23:18:37.325Z,4.95
2022-08-03T23:21:11.710Z,5.25
2022-08-03T23:23:44.016Z,5.22
2022-08-03T23:26:14.126Z,5.53
2022-08-03T23:28:46.280Z,5.45
2022-08-03T23:31:15.664Z,5.30
2022-08-03T23:33:45.786Z,5.50
2022-08-03T23:36:30.939Z,5.13
2022-08-03T23:39:02.328Z,5.70
2022-08-03T23:41:31.606Z,5.85
2022-08-03T23:44:03.753Z,5.40
2022-08-03T23:46:31.562Z,5.68
2022-08-03T23:49:00.301Z,5.50
2022-08-03T23:51:42.465Z,5.35
2022-08-03T23:54:40.433Z,5.70
2022-08-03T23:57:43.369Z,5.93
